Time;durP1;ratioP1;P1;durP2;ratioP2;P2;SDS_P1;SDS_P2;PMS_P1;PMS_P2;Temp;Humidity;BMP_temperature;BMP_pressure;BME280_temperature;BME280_humidity;BME280_pressure;Samples;Min_cycle;Max_cycle;Signal;HPM_P1;HPM_P2
2022/02/01 00:03:22;;;;;;;;;;;15.90;35.70;;;;;;8332460;28;19925;-52
2022/02/01 00:07:35;;;;;;;;;;;15.90;35.70;;;;;;8331564;28;20352;-50
2022/02/01 00:37:06;;;;;;;;;;;16.00;35.50;;;;;;8333288;28;19963;-50
2022/02/01 00:41:08;;;;;;;;;;;16.00;35.50;;;;;;8331110;28;19932;-54
2022/02/01 00:45:08;;;;;;;;;;;16.00;35.50;;;;;;8330995;28;19957;-50
2022/02/01 00:49:09;;;;;;;;;;;16.00;35.40;;;;;;8330730;28;20298;-50
2022/02/01 00:53:10;;;;;;;;;;;16.10;35.40;;;;;;8348300;28;19917;-54
2022/02/01 00:57:12;;;;;;;;;;;16.10;35.40;;;;;;8331093;28;19917;-50
2022/02/01 01:01:13;;;;;;;;;;;16.00;35.40;;;;;;8330080;28;19975;-54
2022/02/01 01:05:14;;;;;;;;;;;16.00;35.40;;;;;;8330529;28;22001;-50
2022/02/01 01:09:14;;;;;;;;;;;16.00;35.40;;;;;;8330592;28;19978;-50
2022/02/01 01:56:00;;;;;;;;;;;15.90;35.40;;;;;;8329419;28;19940;-54
2022/02/01 02:00:01;;;;;;;;;;;15.90;35.50;;;;;;8329892;28;19928;-52
2022/02/01 02:04:02;;;;;;;;;;;15.90;35.50;;;;;;8310914;28;19922;-50
2022/02/01 02:08:03;;;;;;;;;;;15.90;35.50;;;;;;8297214;28;19996;-50
2022/02/01 02:12:17;;;;;;;;;;;15.90;35.50;;;;;;8296833;28;19917;-55
2022/02/01 02:16:17;;;;;;;;;;;15.90;35.50;;;;;;8296389;28;20414;-52
2022/02/01 02:20:20;;;;;;;;;;;15.80;35.50;;;;;;8296937;28;19920;-54
2022/02/01 02:24:21;;;;;;;;;;;15.90;35.60;;;;;;8296526;28;20004;-51
2022/02/01 02:28:22;;;;;;;;;;;15.80;35.60;;;;;;8295902;28;20302;-49
2022/02/01 02:32:24;;;;;;;;;;;15.80;35.60;;;;;;8296912;28;19925;-50
2022/02/01 02:36:25;;;;;;;;;;;15.80;35.60;;;;;;8302514;28;19939;-53
2022/02/01 02:45:05;;;;;;;;;;;15.80;35.60;;;;;;8290890;28;19944;-50
2022/02/01 02:49:06;;;;;;;;;;;15.80;35.50;;;;;;8301591;28;19926;-51
2022/02/01 02:53:06;;;;;;;;;;;15.80;35.50;;;;;;8301841;28;19947;-50
2022/02/01 02:57:10;;;;;;;;;;;15.80;35.50;;;;;;8284336;28;20249;-50
2022/02/01 03:01:11;;;;;;;;;;;15.80;35.50;;;;;;8283616;28;20333;-52
2022/02/01 03:05:11;;;;;;;;;;;15.80;35.50;;;;;;8301575;28;19922;-50
2022/02/01 03:09:12;;;;;;;;;;;15.80;35.50;;;;;;8301536;28;19925;-50
2022/02/01 03:13:18;;;;;;;;;;;15.80;35.50;;;;;;8300844;28;19920;-50
2022/02/01 03:21:19;;;;;;;;;;;15.90;35.50;;;;;;8301537;28;19921;-50
2022/02/01 03:25:19;;;;;;;;;;;15.90;35.40;;;;;;8300677;28;20033;-49
2022/02/01 03:29:21;;;;;;;;;;;15.90;35.40;;;;;;8282617;28;21479;-50
2022/02/01 03:33:22;;;;;;;;;;;15.90;35.40;;;;;;8300819;28;19925;-50
2022/02/01 03:37:22;;;;;;;;;;;15.90;35.30;;;;;;8300175;28;19964;-50
2022/02/01 03:41:23;;;;;;;;;;;15.90;35.30;;;;;;8300268;28;19928;-49
2022/02/01 03:45:23;;;;;;;;;;;15.90;35.30;;;;;;8299694;28;20318;-51
2022/02/01 03:49:24;;;;;;;;;;;15.90;35.30;;;;;;8299559;28;19925;-50
2022/02/01 03:53:24;;;;;;;;;;;15.90;35.30;;;;;;8299936;28;20325;-51
2022/02/01 03:57:25;;;;;;;;;;;15.90;35.30;;;;;;8300018;28;19913;-51
2022/02/01 04:01:28;;;;;;;;;;;15.90;35.40;;;;;;8299452;28;19926;-51
2022/02/01 04:05:30;;;;;;;;;;;15.90;35.40;;;;;;8300202;28;19925;-51
2022/02/01 04:09:30;;;;;;;;;;;15.90;35.40;;;;;;8299402;28;19932;-50
2022/02/01 04:13:31;;;;;;;;;;;15.80;35.40;;;;;;8298978;28;20282;-51
2022/02/01 04:17:31;;;;;;;;;;;15.90;35.50;;;;;;8299573;28;19918;-50
2022/02/01 04:21:32;;;;;;;;;;;15.80;35.40;;;;;;8299097;28;20020;-50
2022/02/01 04:25:32;;;;;;;;;;;15.80;35.40;;;;;;8298792;28;19913;-50
2022/02/01 04:29:34;;;;;;;;;;;15.80;35.40;;;;;;8298902;28;19988;-53
2022/02/01 04:33:34;;;;;;;;;;;15.80;35.40;;;;;;8298758;28;19918;-52
2022/02/01 04:37:35;;;;;;;;;;;15.90;35.40;;;;;;8298264;28;19924;-50
2022/02/01 04:41:36;;;;;;;;;;;15.90;35.50;;;;;;8298586;28;19914;-53
2022/02/01 04:45:37;;;;;;;;;;;15.80;35.40;;;;;;8298713;28;19917;-50
2022/02/01 04:49:37;;;;;;;;;;;15.80;35.40;;;;;;8297855;28;19926;-54
2022/02/01 04:53:38;;;;;;;;;;;15.80;35.40;;;;;;8298288;28;19921;-54
2022/02/01 04:57:48;;;;;;;;;;;15.80;35.40;;;;;;8298186;28;19922;-52
2022/02/01 05:01:48;;;;;;;;;;;15.80;35.40;;;;;;8297887;28;19917;-53
2022/02/01 05:05:50;;;;;;;;;;;15.80;35.40;;;;;;8298030;28;19969;-52
2022/02/01 05:09:51;;;;;;;;;;;15.80;35.40;;;;;;8297803;28;20401;-53
2022/02/01 05:17:56;;;;;;;;;;;15.80;35.50;;;;;;8298013;28;20012;-52
2022/02/01 05:22:00;;;;;;;;;;;15.80;35.50;;;;;;8297419;28;20374;-54
2022/02/01 05:26:01;;;;;;;;;;;15.80;35.40;;;;;;8298304;28;19985;-55
2022/02/01 05:30:02;;;;;;;;;;;15.80;35.40;;;;;;8297738;28;19945;-52
2022/02/01 05:34:02;;;;;;;;;;;15.80;35.40;;;;;;8296992;28;20069;-54
2022/02/01 05:38:03;;;;;;;;;;;15.80;35.40;;;;;;8297361;28;19924;-55
2022/02/01 05:42:04;;;;;;;;;;;15.80;36.00;;;;;;8297705;28;19914;-56
2022/02/01 05:46:04;;;;;;;;;;;15.80;35.50;;;;;;8297015;28;19917;-52
2022/02/01 05:50:06;;;;;;;;;;;15.80;35.40;;;;;;8297106;28;19932;-54
2022/02/01 05:54:06;;;;;;;;;;;15.80;35.40;;;;;;8297090;28;19925;-55
2022/02/01 05:58:07;;;;;;;;;;;15.80;35.50;;;;;;8296654;28;19913;-54
2022/02/01 06:02:07;;;;;;;;;;;15.80;35.50;;;;;;8296986;28;19979;-55
2022/02/01 06:06:08;;;;;;;;;;;15.80;35.50;;;;;;8297277;28;19931;-53
2022/02/01 06:10:08;;;;;;;;;;;15.80;35.50;;;;;;8300997;28;19925;-54
2022/02/01 06:14:09;;;;;;;;;;;15.80;35.50;;;;;;8303201;28;19921;-54
2022/02/01 06:18:09;;;;;;;;;;;15.80;35.50;;;;;;8303178;28;19914;-51
2022/02/01 06:22:10;;;;;;;;;;;15.80;35.50;;;;;;8302616;28;20362;-54
2022/02/01 06:26:10;;;;;;;;;;;15.70;35.40;;;;;;8303263;28;20374;-54
2022/02/01 06:30:11;;;;;;;;;;;15.80;35.50;;;;;;8302493;28;19926;-52
2022/02/01 06:34:11;;;;;;;;;;;15.70;35.40;;;;;;8301941;28;19914;-53
2022/02/01 06:38:12;;;;;;;;;;;15.70;35.40;;;;;;8302382;28;19914;-53
2022/02/01 06:42:13;;;;;;;;;;;15.80;35.50;;;;;;8300270;28;19924;-51
2022/02/01 06:46:13;;;;;;;;;;;15.80;35.50;;;;;;8301864;28;20296;-53
2022/02/01 06:50:18;;;;;;;;;;;15.70;35.40;;;;;;8301935;28;20429;-54
2022/02/01 06:54:19;;;;;;;;;;;15.70;35.40;;;;;;8302155;28;19914;-54
2022/02/01 06:58:19;;;;;;;;;;;15.70;35.40;;;;;;8301246;28;19918;-54
2022/02/01 07:02:20;;;;;;;;;;;15.70;35.50;;;;;;8301820;28;19914;-52
2022/02/01 07:06:20;;;;;;;;;;;15.80;35.50;;;;;;8301983;28;19968;-54
2022/02/01 07:10:21;;;;;;;;;;;15.70;35.40;;;;;;8300916;28;19925;-52
2022/02/01 07:14:21;;;;;;;;;;;15.70;35.40;;;;;;8301214;28;20409;-52
2022/02/01 07:18:22;;;;;;;;;;;15.70;35.40;;;;;;8301183;28;19960;-52
2022/02/01 07:22:22;;;;;;;;;;;15.70;35.50;;;;;;8299811;28;20441;-53
2022/02/01 07:26:23;;;;;;;;;;;15.70;35.40;;;;;;8301157;28;19918;-53
2022/02/01 07:30:24;;;;;;;;;;;15.70;35.40;;;;;;8300500;28;19932;-50
2022/02/01 07:34:25;;;;;;;;;;;15.70;35.40;;;;;;8299942;28;20426;-51
2022/02/01 07:38:26;;;;;;;;;;;15.70;35.40;;;;;;8300504;28;19913;-54
2022/02/01 07:42:27;;;;;;;;;;;15.70;35.40;;;;;;8300664;28;19924;-53
2022/02/01 07:46:29;;;;;;;;;;;15.70;35.40;;;;;;8299490;28;20004;-52
2022/02/01 07:50:32;;;;;;;;;;;15.70;35.40;;;;;;8299748;28;19929;-54
2022/02/01 07:54:33;;;;;;;;;;;15.70;35.40;;;;;;8300040;28;19921;-52
2022/02/01 07:58:33;;;;;;;;;;;15.70;35.40;;;;;;8299245;28;20012;-51
2022/02/01 08:02:35;;;;;;;;;;;15.70;35.40;;;;;;8300111;28;19914;-51
2022/02/01 08:06:35;;;;;;;;;;;15.70;35.40;;;;;;8298872;28;19929;-54
2022/02/01 08:10:44;;;;;;;;;;;15.70;35.40;;;;;;8298833;28;20012;-51
2022/02/01 08:23:03;;;;;;;;;;;15.80;35.30;;;;;;8298563;28;19917;-53
2022/02/01 08:27:04;;;;;;;;;;;15.80;35.30;;;;;;8299542;28;19981;-53
2022/02/01 08:31:04;;;;;;;;;;;15.90;35.30;;;;;;8297994;28;19965;-51
2022/02/01 08:35:05;;;;;;;;;;;15.90;35.20;;;;;;8298625;28;19924;-50
2022/02/01 08:39:05;;;;;;;;;;;15.90;35.20;;;;;;8308100;28;19959;-52
2022/02/01 08:43:06;;;;;;;;;;;15.90;35.20;;;;;;8330597;28;19917;-52
2022/02/01 08:47:08;;;;;;;;;;;15.90;35.20;;;;;;8331455;28;20351;-54
2022/02/01 08:51:11;;;;;;;;;;;15.90;35.20;;;;;;8330718;28;19936;-53
2022/02/01 08:55:21;;;;;;;;;;;15.90;35.20;;;;;;8330321;28;20432;-52
2022/02/01 08:59:21;;;;;;;;;;;15.90;35.10;;;;;;8336959;28;20282;-55
2022/02/01 09:03:22;;;;;;;;;;;15.90;35.20;;;;;;8330439;28;19927;-50
2022/02/01 09:07:23;;;;;;;;;;;15.90;35.10;;;;;;8330358;28;19921;-51
2022/02/01 09:11:23;;;;;;;;;;;15.90;35.20;;;;;;8330273;28;19925;-52
2022/02/01 09:15:26;;;;;;;;;;;15.90;35.20;;;;;;8330254;28;19992;-53
2022/02/01 09:19:30;;;;;;;;;;;15.90;35.20;;;;;;8329464;28;19921;-53
2022/02/01 09:23:32;;;;;;;;;;;15.90;35.20;;;;;;8329976;28;19914;-50
2022/02/01 09:27:33;;;;;;;;;;;15.90;35.20;;;;;;8330185;28;19917;-49
2022/02/01 09:31:33;;;;;;;;;;;15.90;35.20;;;;;;8329192;28;19995;-52
2022/02/01 09:35:34;;;;;;;;;;;15.80;35.20;;;;;;8329752;28;19925;-54
2022/02/01 09:39:34;;;;;;;;;;;15.90;35.20;;;;;;8329763;28;19940;-53
2022/02/01 09:43:35;;;;;;;;;;;15.80;35.20;;;;;;8331871;28;20008;-50
2022/02/01 09:47:41;;;;;;;;;;;15.90;35.30;;;;;;8336849;28;20286;-53
2022/02/01 09:51:42;;;;;;;;;;;15.90;35.30;;;;;;8336587;28;19932;-52
2022/02/01 09:55:42;;;;;;;;;;;15.90;35.20;;;;;;8335726;28;20332;-54
2022/02/01 09:59:51;;;;;;;;;;;15.90;35.30;;;;;;8336490;28;19920;-53
2022/02/01 10:03:59;;;;;;;;;;;15.90;35.20;;;;;;8335733;28;19922;-54
2022/02/01 10:07:59;;;;;;;;;;;15.90;35.30;;;;;;8335595;28;19925;-51
2022/02/01 10:12:00;;;;;;;;;;;15.80;35.20;;;;;;8335852;28;20328;-53
2022/02/01 10:20:09;;;;;;;;;;;15.90;35.20;;;;;;8335744;28;20366;-50
2022/02/01 10:24:09;;;;;;;;;;;15.90;35.30;;;;;;8335509;28;19917;-54
2022/02/01 10:28:11;;;;;;;;;;;15.90;35.20;;;;;;8334966;28;20405;-53
2022/02/01 10:32:19;;;;;;;;;;;15.90;35.30;;;;;;8335392;28;19987;-54
2022/02/01 10:36:19;;;;;;;;;;;15.90;35.30;;;;;;8335239;28;19924;-53
2022/02/01 10:40:20;;;;;;;;;;;15.90;35.30;;;;;;8334364;28;20362;-54
2022/02/01 10:44:22;;;;;;;;;;;15.90;35.30;;;;;;8334891;28;20004;-54
2022/02/01 10:48:24;;;;;;;;;;;15.90;35.20;;;;;;8334940;28;19921;-51
2022/02/01 10:52:24;;;;;;;;;;;15.90;35.20;;;;;;8333916;28;19917;-52
2022/02/01 10:56:26;;;;;;;;;;;15.90;35.30;;;;;;8334273;28;20290;-51
2022/02/01 11:00:27;;;;;;;;;;;15.90;35.30;;;;;;8334313;28;19971;-52
2022/02/01 11:04:28;;;;;;;;;;;15.90;35.20;;;;;;8304751;28;20000;-52
2022/02/01 11:08:32;;;;;;;;;;;15.90;35.20;;;;;;8301424;28;20016;-51
2022/02/01 11:12:33;;;;;;;;;;;15.90;35.20;;;;;;8301468;28;19917;-52
2022/02/01 11:16:33;;;;;;;;;;;15.90;35.40;;;;;;8282964;28;19924;-51
2022/02/01 11:20:34;;;;;;;;;;;15.90;35.20;;;;;;8300937;28;20359;-53
2022/02/01 11:24:37;;;;;;;;;;;15.90;35.20;;;;;;8300923;28;20366;-54
2022/02/01 11:28:48;;;;;;;;;;;15.90;35.20;;;;;;8283492;28;19922;-54
2022/02/01 11:32:50;;;;;;;;;;;15.90;35.20;;;;;;8306517;28;19921;-54
2022/02/01 11:37:03;;;;;;;;;;;15.90;35.20;;;;;;8300566;28;19949;-52
2022/02/01 11:41:06;;;;;;;;;;;16.00;35.20;;;;;;8333031;28;20378;-52
2022/02/01 11:45:07;;;;;;;;;;;16.00;35.20;;;;;;8333187;28;19919;-53
2022/02/01 11:49:07;;;;;;;;;;;16.00;35.20;;;;;;8314306;28;20378;-52
2022/02/01 11:53:16;;;;;;;;;;;15.90;35.20;;;;;;8332869;28;19924;-54
2022/02/01 11:57:24;;;;;;;;;;;16.00;35.20;;;;;;8332770;28;20353;-54
2022/02/01 12:01:28;;;;;;;;;;;16.00;35.20;;;;;;8332017;28;19917;-54
2022/02/01 12:05:33;;;;;;;;;;;16.00;35.20;;;;;;8331993;28;20386;-55
2022/02/01 12:09:34;;;;;;;;;;;16.00;35.20;;;;;;8332204;28;19921;-52
2022/02/01 12:13:36;;;;;;;;;;;16.00;35.20;;;;;;8331826;28;19914;-52
2022/02/01 12:17:41;;;;;;;;;;;16.00;35.20;;;;;;8332198;28;20394;-51
2022/02/01 12:21:45;;;;;;;;;;;16.00;35.20;;;;;;8331909;28;19924;-52
2022/02/01 12:25:46;;;;;;;;;;;16.00;35.20;;;;;;8330998;28;20015;-54
2022/02/01 12:29:46;;;;;;;;;;;16.00;35.30;;;;;;8313824;28;19921;-53
2022/02/01 12:33:48;;;;;;;;;;;16.00;35.20;;;;;;8331492;28;19975;-53
2022/02/01 12:37:48;;;;;;;;;;;16.00;35.20;;;;;;8330735;28;19943;-51
2022/02/01 12:42:00;;;;;;;;;;;16.00;35.20;;;;;;8331647;28;20370;-51
2022/02/01 12:46:19;;;;;;;;;;;16.00;35.20;;;;;;8332237;28;19921;-55
2022/02/01 12:50:19;;;;;;;;;;;16.00;35.20;;;;;;8334527;28;19936;-54
2022/02/01 12:54:23;;;;;;;;;;;16.00;35.20;;;;;;8330983;28;19917;-56
2022/02/01 12:58:23;;;;;;;;;;;16.00;35.10;;;;;;8329965;28;19924;-55
2022/02/01 13:02:26;;;;;;;;;;;15.90;35.10;;;;;;8330749;28;19917;-55
2022/02/01 13:06:28;;;;;;;;;;;16.00;35.10;;;;;;8330695;28;19921;-54
2022/02/01 13:14:54;;;;;;;;;;;16.00;35.20;;;;;;8330634;28;20282;-55
2022/02/01 13:23:06;;;;;;;;;;;16.00;35.20;;;;;;8306893;28;19964;-55
2022/02/01 13:27:19;;;;;;;;;;;16.00;35.10;;;;;;8330373;28;20370;-51
2022/02/01 13:31:25;;;;;;;;;;;16.00;35.10;;;;;;8329549;28;19948;-54
2022/02/01 13:35:25;;;;;;;;;;;16.00;35.10;;;;;;8312557;28;19917;-54
2022/02/01 13:39:30;;;;;;;;;;;16.00;35.10;;;;;;8329975;28;19952;-55
2022/02/01 13:43:31;;;;;;;;;;;16.00;35.10;;;;;;8329346;28;19917;-54
2022/02/01 13:47:32;;;;;;;;;;;16.00;35.10;;;;;;8329877;28;20380;-54
2022/02/01 13:51:46;;;;;;;;;;;16.00;35.10;;;;;;8329587;28;19932;-55
2022/02/01 13:55:57;;;;;;;;;;;16.00;35.10;;;;;;8329030;28;19917;-56
2022/02/01 14:00:12;;;;;;;;;;;16.00;35.10;;;;;;8329997;28;19913;-56
2022/02/01 14:04:16;;;;;;;;;;;16.00;35.10;;;;;;8311564;28;19929;-50
2022/02/01 14:08:38;;;;;;;;;;;16.00;35.10;;;;;;8328562;28;19925;-55
2022/02/01 14:38:12;;;;;;;;;;;16.00;35.10;;;;;;8334913;28;20342;-55
2022/02/01 14:46:31;;;;;;;;;;;16.00;35.60;;;;;;8334565;28;19924;-52
2022/02/01 14:50:32;;;;;;;;;;;15.90;35.00;;;;;;8334311;28;19921;-53
2022/02/01 14:54:45;;;;;;;;;;;16.00;35.10;;;;;;8334767;28;19924;-54
2022/02/01 15:07:35;;;;;;;;;;;16.00;35.10;;;;;;8334737;28;19956;-54
2022/02/01 15:11:53;;;;;;;;;;;16.00;35.10;;;;;;8334134;28;19925;-52
2022/02/01 15:15:53;;;;;;;;;;;16.00;35.10;;;;;;8336120;28;19960;-56
2022/02/01 15:19:54;;;;;;;;;;;16.00;35.20;;;;;;8333796;28;20386;-54
2022/02/01 15:23:54;;;;;;;;;;;16.00;35.20;;;;;;8333875;28;19924;-55
2022/02/01 15:27:55;;;;;;;;;;;15.90;35.10;;;;;;8333649;28;19940;-54
2022/02/01 15:31:55;;;;;;;;;;;16.00;35.10;;;;;;8333143;28;19959;-55
2022/02/01 15:36:02;;;;;;;;;;;16.00;35.10;;;;;;8333595;28;19913;-56
2022/02/01 16:01:35;;;;;;;;;;;16.00;35.20;;;;;;8332338;28;20021;-52
2022/02/01 16:05:35;;;;;;;;;;;16.00;35.10;;;;;;8335740;28;19928;-54
2022/02/01 16:09:46;;;;;;;;;;;16.00;35.10;;;;;;8332285;28;19925;-51
2022/02/01 16:13:49;;;;;;;;;;;16.00;35.20;;;;;;8332264;28;20374;-53
2022/02/01 16:17:50;;;;;;;;;;;16.00;35.20;;;;;;8331943;28;19917;-54
2022/02/01 16:21:50;;;;;;;;;;;16.00;35.20;;;;;;8331923;28;19995;-55
2022/02/01 16:25:51;;;;;;;;;;;16.00;35.20;;;;;;8331459;28;19939;-51
2022/02/01 16:30:04;;;;;;;;;;;16.00;35.20;;;;;;8331600;28;19932;-52
2022/02/01 16:34:04;;;;;;;;;;;16.00;35.20;;;;;;8331022;28;19995;-53
2022/02/01 16:38:05;;;;;;;;;;;16.00;35.20;;;;;;8331223;28;20417;-54
2022/02/01 16:42:05;;;;;;;;;;;15.90;35.20;;;;;;8331040;28;19968;-52
2022/02/01 16:46:06;;;;;;;;;;;15.90;35.20;;;;;;8330900;28;20394;-51
2022/02/01 16:50:12;;;;;;;;;;;15.90;35.20;;;;;;8331252;28;19955;-55
2022/02/01 16:54:16;;;;;;;;;;;15.90;35.20;;;;;;8312922;28;19918;-53
2022/02/01 16:58:36;;;;;;;;;;;15.90;35.20;;;;;;8330414;28;19925;-50
2022/02/01 17:02:36;;;;;;;;;;;15.90;35.20;;;;;;8330834;28;19917;-54
2022/02/01 17:06:37;;;;;;;;;;;15.90;35.20;;;;;;8330337;28;19925;-52
2022/02/01 17:10:39;;;;;;;;;;;15.90;35.20;;;;;;8323966;28;19925;-51
2022/02/01 17:15:00;;;;;;;;;;;15.90;35.20;;;;;;8330582;28;20023;-51
2022/02/01 17:23:18;;;;;;;;;;;15.90;35.20;;;;;;8337589;28;20004;-49
2022/02/01 17:27:20;;;;;;;;;;;15.90;35.20;;;;;;8330003;28;20365;-53
2022/02/01 17:31:21;;;;;;;;;;;15.90;35.20;;;;;;8329710;28;20374;-53
2022/02/01 17:35:21;;;;;;;;;;;15.90;35.20;;;;;;8329823;28;20020;-51
2022/02/01 17:39:24;;;;;;;;;;;15.90;35.20;;;;;;8330151;28;20340;-54
2022/02/01 17:43:24;;;;;;;;;;;15.90;35.20;;;;;;8329584;28;19917;-51
2022/02/01 17:47:24;;;;;;;;;;;15.90;35.20;;;;;;8329980;28;20370;-53
2022/02/01 17:51:35;;;;;;;;;;;15.90;35.30;;;;;;8329780;28;19925;-55
2022/02/01 17:55:36;;;;;;;;;;;15.90;35.30;;;;;;8330023;28;19918;-52
2022/02/01 17:59:37;;;;;;;;;;;15.90;35.30;;;;;;8329716;28;19928;-55
2022/02/01 18:03:37;;;;;;;;;;;15.90;35.30;;;;;;8330007;28;20028;-51
2022/02/01 18:07:38;;;;;;;;;;;15.90;35.30;;;;;;8333488;28;19924;-50
2022/02/01 18:11:53;;;;;;;;;;;15.90;35.30;;;;;;8333728;28;19921;-51
2022/02/01 18:15:56;;;;;;;;;;;15.90;35.30;;;;;;8316009;28;19917;-53
2022/02/01 18:19:57;;;;;;;;;;;15.90;35.30;;;;;;8333253;28;19917;-51
2022/02/01 18:23:57;;;;;;;;;;;15.90;35.40;;;;;;8333511;28;19917;-52
2022/02/01 18:27:59;;;;;;;;;;;15.90;35.40;;;;;;8332823;28;19924;-55
2022/02/01 18:31:59;;;;;;;;;;;15.80;35.40;;;;;;8333499;28;20376;-51
2022/02/01 18:36:01;;;;;;;;;;;15.90;35.40;;;;;;8333461;28;19975;-52
2022/02/01 18:40:06;;;;;;;;;;;15.90;35.50;;;;;;8332661;28;19921;-53
2022/02/01 18:44:10;;;;;;;;;;;15.90;35.50;;;;;;8331419;28;19917;-56
2022/02/01 18:48:12;;;;;;;;;;;15.90;35.90;;;;;;8332912;28;19918;-53
2022/02/01 18:56:29;;;;;;;;;;;15.90;35.40;;;;;;8333991;28;19913;-53
2022/02/01 19:05:05;;;;;;;;;;;15.90;35.40;;;;;;8271084;28;1763685;-54
2022/02/01 19:13:13;;;;;;;;;;;15.90;35.40;;;;;;8335711;28;19918;-51
2022/02/01 19:17:14;;;;;;;;;;;15.90;35.40;;;;;;8333948;28;19913;-53
2022/02/01 19:21:14;;;;;;;;;;;15.90;35.40;;;;;;8334161;28;19917;-51
2022/02/01 19:25:24;;;;;;;;;;;15.90;35.40;;;;;;8333338;28;19913;-53
2022/02/01 19:29:26;;;;;;;;;;;15.90;35.50;;;;;;8334552;28;19925;-54
2022/02/01 19:33:27;;;;;;;;;;;15.90;35.50;;;;;;8333183;28;20012;-50
2022/02/01 19:37:28;;;;;;;;;;;15.90;35.40;;;;;;8332943;28;20374;-55
2022/02/01 19:41:31;;;;;;;;;;;15.90;35.50;;;;;;8332316;28;19955;-53
2022/02/01 19:45:34;;;;;;;;;;;15.90;35.50;;;;;;8333107;28;19921;-50
2022/02/01 19:49:34;;;;;;;;;;;15.90;35.50;;;;;;8332235;28;19931;-52
2022/02/01 19:53:35;;;;;;;;;;;15.90;35.50;;;;;;8332853;28;19913;-54
2022/02/01 19:57:36;;;;;;;;;;;15.90;35.50;;;;;;8332632;28;20398;-52
2022/02/01 20:01:41;;;;;;;;;;;15.90;36.00;;;;;;8332247;28;19917;-53
2022/02/01 20:05:42;;;;;;;;;;;15.90;35.50;;;;;;8315739;28;20008;-52
2022/02/01 20:09:54;;;;;;;;;;;15.90;36.10;;;;;;8299575;28;19922;-53
2022/02/01 20:13:55;;;;;;;;;;;15.90;35.60;;;;;;8299240;28;19917;-54
2022/02/01 20:17:55;;;;;;;;;;;15.90;35.60;;;;;;8299362;28;19947;-50
2022/02/01 20:21:56;;;;;;;;;;;15.90;35.50;;;;;;8299632;28;19921;-53
2022/02/01 20:25:56;;;;;;;;;;;15.90;35.50;;;;;;8298606;28;20267;-51
2022/02/01 20:29:57;;;;;;;;;;;15.90;35.60;;;;;;8298740;28;20279;-50
2022/02/01 20:33:59;;;;;;;;;;;15.90;35.60;;;;;;8298407;28;19913;-52
2022/02/01 20:37:59;;;;;;;;;;;15.90;35.60;;;;;;8298722;28;19924;-52
2022/02/01 20:42:00;;;;;;;;;;;15.90;35.60;;;;;;8299171;28;19917;-50
2022/02/01 20:46:00;;;;;;;;;;;15.90;35.60;;;;;;8298139;28;19918;-50
2022/02/01 20:50:00;;;;;;;;;;;15.90;35.60;;;;;;8298292;28;19949;-51
2022/02/01 20:54:01;;;;;;;;;;;15.90;35.70;;;;;;8298532;28;20290;-51
2022/02/01 20:58:02;;;;;;;;;;;15.90;35.70;;;;;;8297533;28;19918;-52
2022/02/01 21:02:02;;;;;;;;;;;15.90;35.70;;;;;;8298330;28;19913;-54
2022/02/01 21:06:02;;;;;;;;;;;15.90;35.70;;;;;;8298007;28;19956;-50
2022/02/01 21:10:03;;;;;;;;;;;15.90;35.80;;;;;;8297327;28;20402;-52
2022/02/01 21:14:03;;;;;;;;;;;15.90;35.80;;;;;;8297801;28;19913;-54
2022/02/01 21:18:04;;;;;;;;;;;15.90;35.80;;;;;;8297880;28;20020;-52
2022/02/01 21:22:05;;;;;;;;;;;15.90;35.80;;;;;;8297808;28;19924;-54
2022/02/01 21:26:05;;;;;;;;;;;15.90;35.90;;;;;;8297552;28;19924;-51
2022/02/01 21:30:06;;;;;;;;;;;15.90;35.90;;;;;;8297530;28;19921;-54
2022/02/01 21:34:06;;;;;;;;;;;15.90;35.90;;;;;;8296922;28;20383;-55
2022/02/01 21:38:07;;;;;;;;;;;15.80;35.90;;;;;;8296936;28;19914;-54
2022/02/01 21:42:07;;;;;;;;;;;15.80;36.00;;;;;;8297298;28;19918;-53
2022/02/01 21:46:08;;;;;;;;;;;15.80;36.00;;;;;;8296777;28;20004;-54
2022/02/01 21:50:09;;;;;;;;;;;15.80;36.00;;;;;;8297128;28;19925;-54
2022/02/01 21:54:10;;;;;;;;;;;15.80;36.00;;;;;;8297155;28;19921;-54
2022/02/01 21:58:11;;;;;;;;;;;15.80;36.00;;;;;;8296903;28;19953;-54
2022/02/01 22:02:11;;;;;;;;;;;15.80;36.00;;;;;;8297387;28;19925;-54
2022/02/01 22:06:12;;;;;;;;;;;15.80;36.00;;;;;;8296768;28;19921;-54
2022/02/01 22:10:13;;;;;;;;;;;15.80;36.00;;;;;;8296470;28;20378;-54
2022/02/01 22:14:13;;;;;;;;;;;15.80;36.00;;;;;;8297188;28;19925;-54
2022/02/01 22:18:14;;;;;;;;;;;15.90;36.00;;;;;;8297130;28;19914;-53
2022/02/01 22:22:14;;;;;;;;;;;15.80;36.00;;;;;;8296267;28;19918;-53
2022/02/01 22:26:15;;;;;;;;;;;15.90;36.00;;;;;;8296922;28;19925;-55
2022/02/01 22:30:15;;;;;;;;;;;15.90;36.00;;;;;;8296478;28;20375;-55
2022/02/01 22:34:16;;;;;;;;;;;15.90;36.00;;;;;;8295991;28;19992;-54
2022/02/01 22:38:18;;;;;;;;;;;15.90;35.90;;;;;;8296772;28;19919;-55
2022/02/01 22:42:19;;;;;;;;;;;15.90;35.90;;;;;;8296693;28;19918;-54
2022/02/01 22:46:21;;;;;;;;;;;15.90;36.10;;;;;;8295786;28;19917;-51
2022/02/01 22:50:22;;;;;;;;;;;15.90;35.90;;;;;;8298455;28;20329;-55
2022/02/01 22:54:23;;;;;;;;;;;15.90;35.90;;;;;;8301939;28;19963;-54
2022/02/01 22:58:23;;;;;;;;;;;15.90;35.90;;;;;;8302022;28;19914;-54
2022/02/01 23:02:27;;;;;;;;;;;15.90;35.90;;;;;;8313334;28;19924;-54
2022/02/01 23:06:29;;;;;;;;;;;15.90;36.00;;;;;;8302278;28;19928;-54
2022/02/01 23:10:32;;;;;;;;;;;15.90;36.00;;;;;;8301116;28;20017;-55
2022/02/01 23:18:52;;;;;;;;;;;15.90;36.00;;;;;;8304300;28;20385;-54
2022/02/01 23:22:53;;;;;;;;;;;15.90;36.10;;;;;;8300819;28;19918;-52
2022/02/01 23:26:55;;;;;;;;;;;15.90;36.10;;;;;;8301013;28;19917;-55
2022/02/01 23:30:55;;;;;;;;;;;15.90;36.10;;;;;;8300827;28;20259;-51
2022/02/01 23:35:06;;;;;;;;;;;15.90;36.10;;;;;;8300130;28;19924;-55
2022/02/01 23:47:50;;;;;;;;;;;15.90;36.20;;;;;;8225236;28;19924;-50
2022/02/01 23:51:50;;;;;;;;;;;15.90;36.10;;;;;;8313905;28;19933;-55
2022/02/01 23:55:54;;;;;;;;;;;15.80;36.10;;;;;;8332327;28;19951;-54
2022/02/01 23:59:57;;;;;;;;;;;15.90;36.20;;;;;;8332911;28;19966;-54
